メインページ
METAR-TAF:

METAR-TAF

空港 :

パルマ・デ・マリョルカ, スペイン

パルマ・デ・マヨルカ空港

緯度: 39-33N, 経度: 002-44E, 海抜: 4m

現時点の気象観測

当レポートは18分前の23:00(UTC)に作成
変向風 1kt
気温 19°C
湿度 64%
気圧 1019 hPa
視程10km以上
1,500メートル以下は雲なし、積乱雲なし

METAR: LEPA 272300Z VRB01KT CAVOK 19/12 Q1019 NOSIG

時間: 01:18 (23:18 UTC)

予報

当レポートは6時間18分前の17:00(UTC)に作成
予報は27日の 18時(UTC)から 28日の 18時(UTC)まで有効
の風 8kt
視程10km以上
高度3000ftの雲はほとんどない
27日の 18時(UTC)から 27日の 20時(UTC)まで徐々に
北東の風 6kt
28日の 09時(UTC)から 28日の 11時(UTC)まで徐々に
東/南東の風 9kt

TAF: LEPA 271700Z 2718/2818 08008KT 9999 FEW030 TX30/2812Z TN16/2806Z BECMG 2718/2720 04006KT BECMG 2809/2811 12009KT

4,000以上の空港の気象観測と天気予報(METAR報とTAF報)

利用可能な観測所は地図上に黄色い丸と赤い丸で示す。

丸の上にカーソルを重ねると観測所名を参照できる。

次にクリックすると気象観測と天気予報を参照できる。

マップの切り替え:黒色「×」印の緑ボタンをクリックして拡大、「-」印の緑ボタンをクリックして縮小、緑色の三角印をクリックして隣りの地図に切り替え


METAR-TAF: